Data Pengamatan (METAR)
2018-02-20 15:00:00Z
METAR WAOO 201500Z 24003KT 9000 SCT016 27/25 Q1009=
2018-02-20 14:30:00Z
METAR WAOO 201430Z 24003KT 9000 FEW018 27/25 Q1009=
2018-02-20 14:00:00Z
METAR WAOO 201400Z 19005KT 9000 FEW018 27/25 Q1009=
2018-02-20 13:30:00Z
METAR WAOO 201330Z 22004KT 9000 FEW018 28/25 Q1009=
2018-02-20 13:00:00Z
METAR WAOO 201300Z AUTO 21003KT 180V240 7000 SCT055 28/25 Q1009=
2018-02-20 11:00:00Z
METAR WAOO 201100Z 22004KT 9999 FEW017 29/26 Q1007=
2018-02-20 09:30:00Z
METAR WAOO 200930Z 19004KT 9999 SCT017 32/25 Q1006=
2018-02-20 08:30:00Z
METAR WAOO 200830Z 34003KT 9999 SCT017 32/24 Q1005=
2018-02-20 06:00:00Z
METAR WAOO 200600Z 32006KT 9999 SCT017 31/25 Q1007=
2018-02-20 05:30:00Z
METAR WAOO 200530Z 29005KT 9999 SCT017 31/24 Q1007=
2018-02-20 05:00:00Z
METAR WAOO 200500Z 08002KT 9999 SCT017 31/25 Q1008=
2018-02-20 04:30:00Z
METAR WAOO 200430Z 04004KT 9999 SCT017 30/24 Q1009=
2018-02-20 04:00:00Z
METAR WAOO 200400Z 02005KT 9999 SCT017 30/24 Q1009=
2018-02-20 03:30:00Z
METAR WAOO 200330Z 34004KT 9999 FEW017 29/25 Q1010=
2018-02-20 03:00:00Z
METAR WAOO 200300Z 07003KT 9999 FEW017 29/25 Q1010=
2018-02-20 02:30:00Z
METAR WAOO 200230Z 04003KT 9999 FEW017 28/24 ///// Q////=
2018-02-20 02:00:00Z
METAR WAOO 200200Z 03004KT 340V060 9999 FEW017 28/24 Q1010=
2018-02-20 01:30:00Z
METAR WAOO 200130Z 07005KT 010V080 9999 FEW017 26/24 Q1010=
2018-02-20 01:00:00Z
METAR WAOO 200100Z 05002KT 9999 FEW017 26/24 Q1010=
2018-02-20 00:30:00Z
METAR WAOO 200030Z 03005KT 9000 FEW017 24/23 Q1010=
2018-02-20 00:00:00Z
METAR WAOO 200000Z 07003KT 8000 FEW017 24/23 Q1010=
2018-02-19 23:30:00Z
METAR WAOO 192330Z 08005KT 7000 FEW010 24/23 Q1010=
2018-02-19 23:00:00Z
METAR WAOO 192300Z 08007KT 7000 BKN010 23/23 Q1009=
2018-02-19 22:30:00Z
METAR WAOO 192230Z 07006KT 9000 OVC010 24/23 Q1009=
2018-02-19 22:00:00Z
METAR WAOO 192200Z 08006KT 8000 BKN015 23/23 Q1009=
2018-02-19 21:30:00Z
METAR WAOO 192130Z 10005KT 6000 BKN015 23/23 Q1009=
2018-02-19 21:00:00Z
METAR WAOO 192100Z 09006KT 7000 SCT015 23/23 Q1009=
Citra Satelit Himawari-8
Tinggi Gelombang Laut
Sebaran Titik Panas
Potensi Kebakaran Hutan